Time;durP1;ratioP1;P1;durP2;ratioP2;P2;SDS_P1;SDS_P2;PMS_P1;PMS_P2;Temp;Humidity;BMP_temperature;BMP_pressure;BME280_temperature;BME280_humidity;BME280_pressure;Samples;Min_cycle;Max_cycle;Signal;HPM_P1;HPM_P2
2023/12/01 00:00:11;;;;;;;56.83;29.67;;;;;;;;;;5076428;28;20020;-73
2023/12/01 00:02:56;;;;;;;56.15;29.90;;;;;;;;;;5075312;28;20028;-72
2023/12/01 00:05:42;;;;;;;59.28;29.55;;;;;;;;;;5075898;28;20021;-72
2023/12/01 00:08:27;;;;;;;48.55;26.33;;;;;;;;;;5075789;28;20025;-73
2023/12/01 00:11:13;;;;;;;69.38;27.45;;;;;;;;;;5075710;28;20012;-71
2023/12/01 00:13:58;;;;;;;54.00;25.13;;;;;;;;;;5060641;28;20093;-72
2023/12/01 00:16:44;;;;;;;54.30;27.05;;;;;;;;;;5075716;28;20099;-72
2023/12/01 00:19:30;;;;;;;47.15;25.80;;;;;;;;;;5075511;28;20392;-73
2023/12/01 00:22:15;;;;;;;53.15;25.50;;;;;;;;;;5074876;28;20031;-71
2023/12/01 00:25:01;;;;;;;46.75;25.60;;;;;;;;;;5074203;28;20027;-71
2023/12/01 00:27:46;;;;;;;45.47;25.48;;;;;;;;;;5074540;28;20093;-71
2023/12/01 00:30:32;;;;;;;48.10;24.75;;;;;;;;;;5060650;28;20306;-71
2023/12/01 00:33:17;;;;;;;47.28;24.65;;;;;;;;;;5072708;28;20021;-71
2023/12/01 00:36:03;;;;;;;47.40;25.15;;;;;;;;;;5073884;28;20044;-70
2023/12/01 00:38:49;;;;;;;46.05;25.85;;;;;;;;;;5060755;28;20475;-71
2023/12/01 00:41:34;;;;;;;45.38;25.05;;;;;;;;;;5074427;28;20169;-71
2023/12/01 00:44:20;;;;;;;46.90;25.60;;;;;;;;;;5073789;28;20013;-71
2023/12/01 00:47:05;;;;;;;47.50;25.58;;;;;;;;;;5074450;28;20403;-71
2023/12/01 00:49:51;;;;;;;44.78;24.98;;;;;;;;;;5060455;28;20086;-71
2023/12/01 00:52:37;;;;;;;44.13;24.90;;;;;;;;;;5072880;28;20114;-72
2023/12/01 00:55:22;;;;;;;46.95;26.17;;;;;;;;;;5074309;28;20070;-73
2023/12/01 00:58:08;;;;;;;46.53;24.65;;;;;;;;;;5059911;28;20452;-70
2023/12/01 01:00:53;;;;;;;42.80;23.27;;;;;;;;;;5074000;28;20038;-72
2023/12/01 01:03:39;;;;;;;37.80;22.77;;;;;;;;;;5073951;28;20353;-71
2023/12/01 01:06:24;;;;;;;36.83;22.42;;;;;;;;;;5064646;28;20028;-72
2023/12/01 01:09:10;;;;;;;42.83;22.50;;;;;;;;;;5077585;28;20044;-71
2023/12/01 01:11:56;;;;;;;34.60;21.13;;;;;;;;;;5078020;28;20451;-71
2023/12/01 01:14:41;;;;;;;34.72;20.23;;;;;;;;;;5078163;28;20031;-72
2023/12/01 01:17:27;;;;;;;35.90;21.20;;;;;;;;;;5077948;28;20032;-71
2023/12/01 01:20:12;;;;;;;36.72;20.45;;;;;;;;;;5077735;28;20054;-71
2023/12/01 01:22:58;;;;;;;36.67;20.40;;;;;;;;;;5078247;28;20103;-71
2023/12/01 01:25:44;;;;;;;35.78;20.88;;;;;;;;;;5077741;28;20020;-71
2023/12/01 01:28:29;;;;;;;39.65;21.10;;;;;;;;;;5077690;28;20450;-70
2023/12/01 01:31:15;;;;;;;40.05;22.30;;;;;;;;;;5077446;28;20027;-71
2023/12/01 01:34:00;;;;;;;37.90;21.73;;;;;;;;;;5078090;28;20017;-71
2023/12/01 01:36:46;;;;;;;42.45;22.05;;;;;;;;;;5078336;28;20048;-71
2023/12/01 01:39:32;;;;;;;39.92;22.38;;;;;;;;;;5077339;28;20056;-71
2023/12/01 01:42:18;;;;;;;42.40;23.08;;;;;;;;;;5077141;28;20030;-72
2023/12/01 01:45:04;;;;;;;43.42;24.08;;;;;;;;;;5077508;28;20107;-72
2023/12/01 01:47:50;;;;;;;40.28;23.48;;;;;;;;;;5063707;28;20459;-73
2023/12/01 01:50:36;;;;;;;43.53;24.92;;;;;;;;;;5077162;28;20040;-73
2023/12/01 01:53:22;;;;;;;46.90;24.63;;;;;;;;;;5077565;28;20027;-73
2023/12/01 01:56:09;;;;;;;42.40;24.40;;;;;;;;;;5063615;28;20016;-72
2023/12/01 01:58:55;;;;;;;40.17;22.15;;;;;;;;;;5077110;28;20016;-72
2023/12/01 02:01:40;;;;;;;43.40;23.25;;;;;;;;;;5062477;28;20349;-73
2023/12/01 02:04:26;;;;;;;42.72;23.70;;;;;;;;;;5077279;28;20052;-72
2023/12/01 02:07:32;;;;;;;41.60;22.95;;;;;;;;;;5075437;28;20527;-72
2023/12/01 02:10:17;;;;;;;42.28;22.92;;;;;;;;;;5076059;28;20017;-72
2023/12/01 02:13:10;;;;;;;43.47;22.48;;;;;;;;;;5075399;28;20468;-72
2023/12/01 02:15:55;;;;;;;42.00;23.85;;;;;;;;;;5076793;28;20086;-73
2023/12/01 02:18:41;;;;;;;42.80;24.00;;;;;;;;;;5077175;28;20097;-73
2023/12/01 02:21:27;;;;;;;42.28;24.88;;;;;;;;;;5062409;28;20031;-72
2023/12/01 02:24:13;;;;;;;41.08;23.33;;;;;;;;;;5076351;28;20325;-73
2023/12/01 02:26:59;;;;;;;43.92;25.13;;;;;;;;;;5076741;28;20031;-73
2023/12/01 02:29:44;;;;;;;46.10;24.90;;;;;;;;;;5061350;28;20444;-72
2023/12/01 02:32:30;;;;;;;47.25;24.10;;;;;;;;;;5063093;28;20021;-72
2023/12/01 02:35:15;;;;;;;43.65;23.80;;;;;;;;;;5076569;28;20017;-72
2023/12/01 02:38:01;;;;;;;48.17;25.08;;;;;;;;;;5061939;28;20032;-72
2023/12/01 02:40:50;;;;;;;46.17;25.52;;;;;;;;;;5076198;28;20124;-72
2023/12/01 02:43:35;;;;;;;45.17;24.33;;;;;;;;;;5075677;28;20090;-72
2023/12/01 02:46:22;;;;;;;43.97;24.38;;;;;;;;;;5076527;28;20448;-73
2023/12/01 02:49:08;;;;;;;45.47;24.90;;;;;;;;;;5075777;28;20027;-72
2023/12/01 02:51:53;;;;;;;47.00;25.38;;;;;;;;;;5091066;28;20044;-71
2023/12/01 02:54:39;;;;;;;49.72;25.88;;;;;;;;;;5095761;28;20330;-72
2023/12/01 02:57:24;;;;;;;46.15;24.13;;;;;;;;;;5082566;28;20026;-73
2023/12/01 03:00:13;;;;;;;45.70;24.65;;;;;;;;;;5097757;28;20020;-73
2023/12/01 03:02:59;;;;;;;57.70;28.83;;;;;;;;;;5097735;28;20106;-73
2023/12/01 03:05:45;;;;;;;54.65;29.70;;;;;;;;;;5096140;28;20024;-71
2023/12/01 03:08:30;;;;;;;50.45;29.85;;;;;;;;;;5082199;28;20031;-70
2023/12/01 03:11:21;;;;;;;56.38;31.67;;;;;;;;;;5096877;28;20031;-71
2023/12/01 03:14:07;;;;;;;52.72;29.27;;;;;;;;;;5095954;28;20020;-71
2023/12/01 03:16:56;;;;;;;46.58;25.05;;;;;;;;;;5097026;28;20425;-72
2023/12/01 03:19:45;;;;;;;44.65;23.52;;;;;;;;;;5095871;28;20024;-71
2023/12/01 03:22:31;;;;;;;46.08;25.10;;;;;;;;;;5096948;28;20342;-70
2023/12/01 03:25:17;;;;;;;42.15;22.63;;;;;;;;;;5095163;28;20396;-72
2023/12/01 03:28:04;;;;;;;46.20;24.85;;;;;;;;;;5094385;28;20020;-72
2023/12/01 03:30:50;;;;;;;44.78;24.30;;;;;;;;;;5081566;28;20032;-71
2023/12/01 03:33:35;;;;;;;42.65;23.88;;;;;;;;;;5096555;28;20349;-71
2023/12/01 03:36:24;;;;;;;47.88;24.60;;;;;;;;;;5082249;28;20024;-71
2023/12/01 03:39:09;;;;;;;47.70;24.73;;;;;;;;;;5095561;28;20027;-72
2023/12/01 03:41:55;;;;;;;46.65;25.50;;;;;;;;;;5095140;28;20030;-71
2023/12/01 03:44:41;;;;;;;44.65;24.58;;;;;;;;;;5095690;28;20012;-70
2023/12/01 03:47:26;;;;;;;45.88;24.45;;;;;;;;;;5096411;28;20445;-72
2023/12/01 03:50:12;;;;;;;47.67;24.02;;;;;;;;;;5096364;28;20024;-70
2023/12/01 03:52:57;;;;;;;47.17;25.08;;;;;;;;;;5094582;28;20352;-71
2023/12/01 03:55:43;;;;;;;46.60;25.60;;;;;;;;;;5096486;28;20042;-70
2023/12/01 03:58:29;;;;;;;47.13;25.70;;;;;;;;;;5096030;28;20064;-71
2023/12/01 04:01:14;;;;;;;47.38;25.60;;;;;;;;;;5095254;28;20031;-71
2023/12/01 04:04:00;;;;;;;48.40;26.08;;;;;;;;;;5096623;28;20085;-73
2023/12/01 04:06:45;;;;;;;52.03;28.08;;;;;;;;;;5096082;28;20028;-71
2023/12/01 04:09:31;;;;;;;53.05;27.33;;;;;;;;;;5095788;28;20028;-71
2023/12/01 04:12:16;;;;;;;49.58;26.70;;;;;;;;;;5094270;28;20337;-71
2023/12/01 04:15:02;;;;;;;52.00;28.00;;;;;;;;;;5095724;28;20063;-72
2023/12/01 04:17:48;;;;;;;55.40;28.23;;;;;;;;;;5081390;28;20111;-71
2023/12/01 04:20:38;;;;;;;52.92;28.80;;;;;;;;;;5093994;28;20472;-71
2023/12/01 04:23:24;;;;;;;49.35;26.90;;;;;;;;;;5094255;28;20027;-71
2023/12/01 04:26:12;;;;;;;55.80;28.27;;;;;;;;;;5094705;28;20099;-70
2023/12/01 04:28:57;;;;;;;53.72;28.17;;;;;;;;;;5095674;28;20165;-70
2023/12/01 04:31:43;;;;;;;52.17;27.67;;;;;;;;;;5095887;28;20024;-71
2023/12/01 04:34:28;;;;;;;51.38;28.10;;;;;;;;;;5093861;28;20047;-70
2023/12/01 04:37:15;;;;;;;54.17;27.58;;;;;;;;;;5096020;28;20096;-70
2023/12/01 04:40:00;;;;;;;60.88;31.63;;;;;;;;;;5093762;28;20413;-71
2023/12/01 04:42:47;;;;;;;66.03;34.10;;;;;;;;;;5095574;28;20047;-71
2023/12/01 04:45:33;;;;;;;60.60;33.58;;;;;;;;;;5093414;28;20020;-71
2023/12/01 04:48:18;;;;;;;67.55;35.15;;;;;;;;;;5093396;28;20020;-71
2023/12/01 04:51:04;;;;;;;67.05;34.60;;;;;;;;;;5093505;28;20456;-71
2023/12/01 04:53:50;;;;;;;77.38;38.78;;;;;;;;;;5094667;28;20098;-71
2023/12/01 04:56:35;;;;;;;70.40;39.13;;;;;;;;;;5095539;28;20028;-71
2023/12/01 04:59:21;;;;;;;67.97;37.25;;;;;;;;;;5080226;28;20107;-70
2023/12/01 05:02:07;;;;;;;71.35;37.65;;;;;;;;;;5095570;28;20023;-70
2023/12/01 05:04:53;;;;;;;66.55;34.97;;;;;;;;;;5093318;28;20357;-71
2023/12/01 05:07:38;;;;;;;68.00;35.38;;;;;;;;;;5095133;28;20035;-71
2023/12/01 05:10:25;;;;;;;64.70;35.78;;;;;;;;;;5095195;28;20091;-70
2023/12/01 05:13:11;;;;;;;61.15;32.10;;;;;;;;;;5094396;28;20016;-71
2023/12/01 05:15:56;;;;;;;58.00;31.65;;;;;;;;;;5094821;28;20026;-72
2023/12/01 05:18:42;;;;;;;59.20;30.60;;;;;;;;;;5095128;28;20085;-70
2023/12/01 05:21:27;;;;;;;62.22;33.50;;;;;;;;;;5095477;28;20024;-71
2023/12/01 05:24:13;;;;;;;61.40;32.10;;;;;;;;;;5095050;28;20031;-71
2023/12/01 05:27:07;;;;;;;59.78;31.63;;;;;;;;;;5080950;28;20027;-69
2023/12/01 05:29:53;;;;;;;60.63;31.80;;;;;;;;;;5080185;28;20027;-70
2023/12/01 05:32:39;;;;;;;62.65;33.22;;;;;;;;;;5095243;28;20032;-72
2023/12/01 05:35:25;;;;;;;61.90;34.10;;;;;;;;;;5093170;28;20027;-70
2023/12/01 05:38:11;;;;;;;73.50;41.80;;;;;;;;;;5080389;28;20027;-70
2023/12/01 05:40:57;;;;;;;69.35;38.35;;;;;;;;;;5093229;28;20093;-71
2023/12/01 05:43:42;;;;;;;70.97;38.65;;;;;;;;;;5080027;28;20428;-70
2023/12/01 05:46:28;;;;;;;65.30;36.03;;;;;;;;;;5095163;28;20040;-71
2023/12/01 05:49:14;;;;;;;66.10;36.65;;;;;;;;;;5093755;28;20031;-71
2023/12/01 05:52:00;;;;;;;81.22;39.15;;;;;;;;;;5094753;28;20097;-73
2023/12/01 05:54:45;;;;;;;75.07;39.80;;;;;;;;;;5097383;28;20023;-73
2023/12/01 05:57:31;;;;;;;87.93;42.45;;;;;;;;;;5098851;28;20023;-73
2023/12/01 06:00:23;;;;;;;75.47;39.58;;;;;;;;;;5097063;28;20035;-72
2023/12/01 06:03:11;;;;;;;70.30;38.25;;;;;;;;;;5097373;28;20084;-74
2023/12/01 06:05:57;;;;;;;79.05;39.22;;;;;;;;;;5096097;28;20020;-72
2023/12/01 06:08:42;;;;;;;81.50;37.88;;;;;;;;;;5098340;28;20479;-72
2023/12/01 06:11:28;;;;;;;77.03;39.42;;;;;;;;;;5098148;28;20081;-72
2023/12/01 06:14:13;;;;;;;67.57;38.10;;;;;;;;;;5098576;28;20138;-72
2023/12/01 06:17:00;;;;;;;78.38;42.35;;;;;;;;;;5083737;28;20459;-70
2023/12/01 06:19:46;;;;;;;83.38;46.22;;;;;;;;;;5098323;28;20024;-73
2023/12/01 06:22:32;;;;;;;83.07;45.88;;;;;;;;;;5097710;28;20036;-72
2023/12/01 06:25:26;;;;;;;75.07;41.10;;;;;;;;;;5097900;28;20345;-71
2023/12/01 06:28:12;;;;;;;69.35;38.53;;;;;;;;;;5096100;28;20016;-72
2023/12/01 06:30:58;;;;;;;64.43;34.58;;;;;;;;;;5098261;28;20035;-72
2023/12/01 06:33:44;;;;;;;61.55;33.25;;;;;;;;;;5098638;28;20020;-71
2023/12/01 06:36:29;;;;;;;60.35;31.88;;;;;;;;;;5097008;28;20373;-73
2023/12/01 06:39:15;;;;;;;58.05;31.13;;;;;;;;;;5098564;28;20021;-73
2023/12/01 06:42:00;;;;;;;57.60;32.08;;;;;;;;;;5081501;28;20016;-71
2023/12/01 06:44:46;;;;;;;56.60;31.10;;;;;;;;;;5098160;28;20100;-71
2023/12/01 06:47:32;;;;;;;58.00;31.08;;;;;;;;;;5096065;28;20102;-72
2023/12/01 06:50:18;;;;;;;61.30;32.60;;;;;;;;;;5083056;28;20020;-72
2023/12/01 06:53:06;;;;;;;60.65;31.85;;;;;;;;;;5083278;28;20092;-72
2023/12/01 06:55:51;;;;;;;57.28;30.25;;;;;;;;;;5096144;28;20312;-72
2023/12/01 06:58:37;;;;;;;50.80;28.05;;;;;;;;;;5082813;28;20020;-73
2023/12/01 07:01:22;;;;;;;51.13;28.65;;;;;;;;;;5097385;28;20027;-71
2023/12/01 07:04:08;;;;;;;52.55;27.38;;;;;;;;;;5083452;28;20109;-71
2023/12/01 07:06:53;;;;;;;52.40;29.17;;;;;;;;;;5097367;28;20464;-72
2023/12/01 07:09:41;;;;;;;53.85;29.20;;;;;;;;;;5097880;28;20024;-71
2023/12/01 07:12:27;;;;;;;54.25;30.10;;;;;;;;;;5080962;28;20016;-72
2023/12/01 07:15:13;;;;;;;54.03;29.92;;;;;;;;;;5097302;28;20020;-71
2023/12/01 07:17:58;;;;;;;51.75;29.63;;;;;;;;;;5097632;28;20496;-70
2023/12/01 07:20:44;;;;;;;51.85;29.67;;;;;;;;;;5082237;28;20111;-72
2023/12/01 07:23:29;;;;;;;59.60;32.72;;;;;;;;;;5096210;28;20039;-72
2023/12/01 07:26:15;;;;;;;63.30;31.92;;;;;;;;;;5097171;28;20034;-73
2023/12/01 07:29:04;;;;;;;64.78;35.20;;;;;;;;;;5094797;28;20024;-71
2023/12/01 07:31:51;;;;;;;70.20;37.33;;;;;;;;;;5095555;28;20107;-70
2023/12/01 07:34:36;;;;;;;69.70;38.53;;;;;;;;;;5096772;28;20024;-70
2023/12/01 07:37:22;;;;;;;65.10;35.53;;;;;;;;;;5096800;28;20373;-71
2023/12/01 07:40:11;;;;;;;63.97;32.03;;;;;;;;;;5094838;28;20085;-72
2023/12/01 07:42:57;;;;;;;63.70;34.00;;;;;;;;;;5094733;28;20016;-71
2023/12/01 07:45:42;;;;;;;61.97;32.10;;;;;;;;;;5096367;28;20114;-71
2023/12/01 07:48:28;;;;;;;59.33;32.35;;;;;;;;;;5096522;28;20035;-71
2023/12/01 07:51:15;;;;;;;67.03;34.17;;;;;;;;;;5093932;28;20060;-72
2023/12/01 07:54:01;;;;;;;64.88;32.75;;;;;;;;;;5096901;28;20037;-72
2023/12/01 07:56:46;;;;;;;60.83;31.70;;;;;;;;;;5096594;28;20028;-72
2023/12/01 07:59:32;;;;;;;66.32;33.78;;;;;;;;;;5082435;28;20028;-72
2023/12/01 08:02:17;;;;;;;61.13;31.80;;;;;;;;;;5094600;28;20039;-72
2023/12/01 08:05:03;;;;;;;62.75;33.40;;;;;;;;;;5096278;28;20032;-70
2023/12/01 08:07:51;;;;;;;61.95;32.80;;;;;;;;;;5081134;28;20028;-70
2023/12/01 08:10:37;;;;;;;63.58;33.00;;;;;;;;;;5094811;28;20031;-72
2023/12/01 08:13:24;;;;;;;60.75;32.65;;;;;;;;;;5096542;28;20031;-72
2023/12/01 08:16:09;;;;;;;58.15;31.15;;;;;;;;;;5095123;28;20031;-71
2023/12/01 08:18:58;;;;;;;55.88;30.52;;;;;;;;;;5095932;28;20480;-72
2023/12/01 08:21:44;;;;;;;60.38;31.98;;;;;;;;;;5079285;28;20073;-72
2023/12/01 08:24:31;;;;;;;64.50;33.38;;;;;;;;;;5093185;28;20020;-72
2023/12/01 08:27:17;;;;;;;61.20;33.03;;;;;;;;;;5094307;28;20030;-71
2023/12/01 08:30:03;;;;;;;64.97;33.17;;;;;;;;;;5093555;28;20013;-70
2023/12/01 08:32:48;;;;;;;61.50;31.80;;;;;;;;;;5093280;28;20016;-72
2023/12/01 08:35:34;;;;;;;60.78;32.78;;;;;;;;;;5096068;28;20035;-71
2023/12/01 08:38:20;;;;;;;61.50;31.75;;;;;;;;;;5094062;28;20103;-71
2023/12/01 08:41:05;;;;;;;61.67;32.63;;;;;;;;;;5095787;28;20092;-71
2023/12/01 08:43:51;;;;;;;104.95;35.75;;;;;;;;;;5096260;28;20066;-71
2023/12/01 08:46:37;;;;;;;65.47;32.75;;;;;;;;;;5095030;28;20023;-71
2023/12/01 08:49:22;;;;;;;66.40;32.72;;;;;;;;;;5095391;28;20012;-71
2023/12/01 08:52:08;;;;;;;69.90;34.90;;;;;;;;;;5095717;28;20039;-70
2023/12/01 08:54:53;;;;;;;63.47;33.72;;;;;;;;;;5095611;28;20023;-70
2023/12/01 08:57:39;;;;;;;61.10;31.98;;;;;;;;;;5095929;28;20115;-71
2023/12/01 09:00:25;;;;;;;62.20;33.05;;;;;;;;;;5094620;28;20024;-71
2023/12/01 09:03:10;;;;;;;65.07;34.28;;;;;;;;;;5095435;28;20361;-71
2023/12/01 09:05:56;;;;;;;61.63;33.03;;;;;;;;;;5079204;28;20055;-71
2023/12/01 09:08:41;;;;;;;71.82;34.40;;;;;;;;;;5093746;28;20019;-71
2023/12/01 09:11:27;;;;;;;68.35;34.08;;;;;;;;;;5093930;28;20360;-71
2023/12/01 09:14:12;;;;;;;59.67;32.85;;;;;;;;;;5093936;28;20020;-70
2023/12/01 09:16:58;;;;;;;59.75;31.60;;;;;;;;;;5094840;28;20051;-72
2023/12/01 09:19:44;;;;;;;57.75;33.13;;;;;;;;;;5093907;28;20020;-71
2023/12/01 09:22:29;;;;;;;61.63;33.42;;;;;;;;;;5080786;28;20028;-71
2023/12/01 09:25:15;;;;;;;66.32;33.42;;;;;;;;;;5095728;28;20030;-71
2023/12/01 09:28:00;;;;;;;62.55;33.35;;;;;;;;;;5095584;28;20031;-71
2023/12/01 09:30:46;;;;;;;64.05;33.92;;;;;;;;;;5100445;28;20066;-71
2023/12/01 09:33:31;;;;;;;63.72;34.90;;;;;;;;;;5084130;28;20016;-71
2023/12/01 09:36:17;;;;;;;67.85;35.60;;;;;;;;;;5097192;28;20459;-71
2023/12/01 09:39:03;;;;;;;63.83;34.42;;;;;;;;;;5099436;28;20058;-71
2023/12/01 09:41:50;;;;;;;60.35;32.83;;;;;;;;;;5084645;28;20028;-71
2023/12/01 09:44:36;;;;;;;64.65;34.03;;;;;;;;;;5084014;28;20363;-70
2023/12/01 09:47:22;;;;;;;68.38;35.13;;;;;;;;;;5081988;28;20073;-71
2023/12/01 09:50:13;;;;;;;69.28;35.42;;;;;;;;;;5099167;28;20107;-71
2023/12/01 09:52:59;;;;;;;62.13;33.58;;;;;;;;;;5097444;28;20340;-71
2023/12/01 09:55:45;;;;;;;62.80;35.78;;;;;;;;;;5099490;28;20107;-71
2023/12/01 09:58:31;;;;;;;64.18;35.97;;;;;;;;;;5084065;28;20107;-71
2023/12/01 10:01:17;;;;;;;66.28;35.85;;;;;;;;;;5083739;28;20036;-72
2023/12/01 10:04:03;;;;;;;62.83;35.05;;;;;;;;;;5099238;28;20028;-71
2023/12/01 10:06:49;;;;;;;63.30;35.58;;;;;;;;;;5098040;28;20108;-71
2023/12/01 10:09:35;;;;;;;64.68;35.53;;;;;;;;;;5084581;28;20026;-72
2023/12/01 10:12:20;;;;;;;65.43;34.72;;;;;;;;;;5081684;28;20016;-71
2023/12/01 10:15:06;;;;;;;61.30;34.95;;;;;;;;;;5084716;28;20036;-71
2023/12/01 10:17:52;;;;;;;59.95;31.85;;;;;;;;;;5098904;28;20024;-71
2023/12/01 10:20:42;;;;;;;54.60;31.15;;;;;;;;;;5098069;28;20024;-71
2023/12/01 10:23:28;;;;;;;59.75;34.30;;;;;;;;;;5096481;28;20016;-71
2023/12/01 10:26:14;;;;;;;59.20;32.08;;;;;;;;;;5081020;28;20436;-70
2023/12/01 10:28:59;;;;;;;59.13;31.90;;;;;;;;;;5083501;28;20406;-70
2023/12/01 10:31:47;;;;;;;55.78;31.88;;;;;;;;;;5098043;28;20020;-70
2023/12/01 10:34:33;;;;;;;55.10;30.15;;;;;;;;;;5096464;28;20016;-71
2023/12/01 10:37:20;;;;;;;61.33;34.40;;;;;;;;;;5096361;28;20020;-70
2023/12/01 10:40:13;;;;;;;56.95;32.40;;;;;;;;;;5098155;28;20020;-71
2023/12/01 10:42:59;;;;;;;61.58;34.78;;;;;;;;;;5097542;28;20017;-70
2023/12/01 10:45:45;;;;;;;66.30;33.08;;;;;;;;;;5097782;28;20032;-70
2023/12/01 10:48:32;;;;;;;70.18;31.88;;;;;;;;;;5096167;28;20020;-71
2023/12/01 10:51:18;;;;;;;56.67;31.98;;;;;;;;;;5096301;28;20180;-71
2023/12/01 10:54:03;;;;;;;60.53;31.58;;;;;;;;;;5082896;28;20073;-70
2023/12/01 10:56:49;;;;;;;60.97;33.80;;;;;;;;;;5096442;28;20024;-71
2023/12/01 10:59:37;;;;;;;59.45;31.85;;;;;;;;;;5097673;28;20028;-70
2023/12/01 11:02:23;;;;;;;60.40;32.30;;;;;;;;;;5097054;28;20035;-71
2023/12/01 11:05:10;;;;;;;62.00;31.70;;;;;;;;;;5096852;28;20119;-70
2023/12/01 11:08:10;;;;;;;62.50;33.00;;;;;;;;;;5096452;28;20031;-70
2023/12/01 11:10:59;;;;;;;59.83;33.92;;;;;;;;;;5096475;28;20099;-70
2023/12/01 11:13:44;;;;;;;63.85;34.97;;;;;;;;;;5097029;28;20103;-73
2023/12/01 11:16:31;;;;;;;60.50;34.10;;;;;;;;;;5097664;28;20077;-71
2023/12/01 11:19:18;;;;;;;63.50;32.72;;;;;;;;;;5096840;28;20028;-71
2023/12/01 11:22:22;;;;;;;53.95;30.75;;;;;;;;;;5097239;28;20020;-70
2023/12/01 11:25:28;;;;;;;57.45;31.30;;;;;;;;;;5096280;28;20028;-71
2023/12/01 11:34:12;;;;;;;50.83;28.88;;;;;;;;;;5095878;28;20031;-71
2023/12/01 11:37:00;;;;;;;49.47;29.27;;;;;;;;;;5096189;28;20028;-72
2023/12/01 11:40:06;;;;;;;57.55;28.98;;;;;;;;;;5082291;28;20047;-72
2023/12/01 11:42:51;;;;;;;63.00;30.23;;;;;;;;;;5095956;28;20056;-71
2023/12/01 11:45:44;;;;;;;54.17;29.05;;;;;;;;;;5098075;28;20314;-72
2023/12/01 11:48:31;;;;;;;53.08;29.08;;;;;;;;;;5082768;28;20356;-73
2023/12/01 11:51:17;;;;;;;46.53;27.17;;;;;;;;;;5082625;28;20372;-72
2023/12/01 11:54:05;;;;;;;47.95;27.42;;;;;;;;;;5083540;28;20016;-73
2023/12/01 11:56:52;;;;;;;48.67;27.27;;;;;;;;;;5082225;28;20024;-73
2023/12/01 11:59:38;;;;;;;54.80;29.45;;;;;;;;;;5080964;28;20031;-71
2023/12/01 12:02:31;;;;;;;57.05;29.15;;;;;;;;;;5096862;28;20020;-71
2023/12/01 12:05:16;;;;;;;48.58;27.38;;;;;;;;;;5097107;28;20028;-71
2023/12/01 12:08:04;;;;;;;47.53;26.85;;;;;;;;;;5082537;28;20015;-72
2023/12/01 12:10:49;;;;;;;51.83;29.02;;;;;;;;;;5099410;28;20016;-74
2023/12/01 12:13:35;;;;;;;57.75;27.48;;;;;;;;;;5080563;28;20111;-70
2023/12/01 12:16:22;;;;;;;51.25;28.50;;;;;;;;;;5081654;28;20376;-71
2023/12/01 12:19:08;;;;;;;46.55;27.83;;;;;;;;;;5096835;28;20035;-73
2023/12/01 12:21:54;;;;;;;59.95;30.60;;;;;;;;;;5072768;28;20107;-73
2023/12/01 12:24:44;;;;;;;69.80;29.48;;;;;;;;;;5055769;28;20038;-74
2023/12/01 12:27:37;;;;;;;56.60;28.67;;;;;;;;;;5075077;28;20085;-74
2023/12/01 12:30:26;;;;;;;46.17;27.25;;;;;;;;;;5074944;28;20033;-72
2023/12/01 12:33:11;;;;;;;54.15;29.15;;;;;;;;;;5061586;28;20017;-74
2023/12/01 12:35:57;;;;;;;51.05;27.90;;;;;;;;;;5074505;28;20359;-73
2023/12/01 12:38:42;;;;;;;50.20;27.15;;;;;;;;;;5060925;28;20025;-74
2023/12/01 12:41:32;;;;;;;54.80;29.77;;;;;;;;;;5058093;28;20098;-73
2023/12/01 12:44:18;;;;;;;53.58;29.85;;;;;;;;;;5075032;28;20142;-71
2023/12/01 12:47:04;;;;;;;60.00;29.55;;;;;;;;;;5074270;28;20031;-72
2023/12/01 12:49:52;;;;;;;54.60;29.98;;;;;;;;;;5074882;28;20017;-72
2023/12/01 12:52:37;;;;;;;51.22;28.77;;;;;;;;;;5093671;28;20048;-72
2023/12/01 12:55:25;;;;;;;50.42;29.73;;;;;;;;;;5093720;28;20054;-72
2023/12/01 12:58:10;;;;;;;52.28;29.60;;;;;;;;;;5093317;28;20028;-73
2023/12/01 13:00:56;;;;;;;57.00;31.20;;;;;;;;;;5080544;28;20444;-73
2023/12/01 13:03:42;;;;;;;52.95;30.63;;;;;;;;;;5098883;28;20035;-73
2023/12/01 13:06:28;;;;;;;53.83;30.98;;;;;;;;;;5098167;28;20032;-72
2023/12/01 13:09:13;;;;;;;52.13;30.33;;;;;;;;;;5096604;28;20399;-73
2023/12/01 13:11:59;;;;;;;55.78;31.48;;;;;;;;;;5083889;28;20505;-74
2023/12/01 13:14:45;;;;;;;69.47;33.95;;;;;;;;;;5084158;28;20510;-73
2023/12/01 13:17:31;;;;;;;52.80;30.33;;;;;;;;;;5096822;28;20026;-73
2023/12/01 13:20:17;;;;;;;62.30;32.00;;;;;;;;;;5098123;28;20024;-73
2023/12/01 13:23:02;;;;;;;89.72;35.92;;;;;;;;;;5084206;28;20055;-73
2023/12/01 13:25:48;;;;;;;75.38;35.30;;;;;;;;;;5098000;28;20027;-72
2023/12/01 13:28:34;;;;;;;60.42;34.80;;;;;;;;;;5098825;28;20099;-73
2023/12/01 13:31:19;;;;;;;64.82;35.67;;;;;;;;;;5097091;28;20474;-71
2023/12/01 13:34:05;;;;;;;63.55;33.83;;;;;;;;;;5097581;28;20051;-71
2023/12/01 13:36:53;;;;;;;59.10;33.58;;;;;;;;;;5097957;28;20024;-71
2023/12/01 13:39:39;;;;;;;61.50;34.15;;;;;;;;;;5097994;28;20043;-71
2023/12/01 13:42:29;;;;;;;64.15;32.67;;;;;;;;;;5096723;28;20031;-72
2023/12/01 13:45:15;;;;;;;64.43;34.55;;;;;;;;;;5095577;28;20019;-71
2023/12/01 13:48:01;;;;;;;67.35;34.67;;;;;;;;;;5097469;28;20028;-70
2023/12/01 13:50:46;;;;;;;57.35;32.80;;;;;;;;;;5097251;28;20468;-72
2023/12/01 13:53:32;;;;;;;58.08;32.95;;;;;;;;;;5084000;28;20477;-72
2023/12/01 13:56:17;;;;;;;62.85;32.63;;;;;;;;;;5084287;28;20024;-72
2023/12/01 13:59:03;;;;;;;63.38;33.78;;;;;;;;;;5083007;28;20098;-72
2023/12/01 14:01:49;;;;;;;56.30;31.88;;;;;;;;;;5096998;28;20361;-71
2023/12/01 14:04:36;;;;;;;70.00;33.47;;;;;;;;;;5082438;28;20028;-71
2023/12/01 14:07:22;;;;;;;94.35;34.42;;;;;;;;;;5083337;28;20038;-71
2023/12/01 14:10:11;;;;;;;64.18;33.65;;;;;;;;;;5083107;28;20016;-71
2023/12/01 14:12:56;;;;;;;61.15;32.67;;;;;;;;;;5095710;28;20085;-72
2023/12/01 14:15:42;;;;;;;55.60;31.30;;;;;;;;;;5081931;28;20054;-71
2023/12/01 14:18:27;;;;;;;57.20;31.27;;;;;;;;;;5076638;28;20039;-71
2023/12/01 14:21:13;;;;;;;56.85;31.98;;;;;;;;;;5076521;28;20397;-70
2023/12/01 14:23:59;;;;;;;152.15;37.17;;;;;;;;;;5062542;28;20119;-71
2023/12/01 14:26:45;;;;;;;76.30;32.90;;;;;;;;;;5077954;28;20350;-70
2023/12/01 14:29:32;;;;;;;77.55;34.38;;;;;;;;;;5076538;28;20020;-72
2023/12/01 14:32:18;;;;;;;62.50;33.20;;;;;;;;;;5076629;28;20020;-71
2023/12/01 14:35:04;;;;;;;58.45;34.17;;;;;;;;;;5077500;28;20024;-71
2023/12/01 14:37:50;;;;;;;106.28;36.22;;;;;;;;;;5079276;28;20062;-72
2023/12/01 14:40:36;;;;;;;64.22;32.95;;;;;;;;;;5082488;28;20020;-72
2023/12/01 14:43:21;;;;;;;76.50;36.33;;;;;;;;;;5097571;28;20021;-71
2023/12/01 14:46:07;;;;;;;69.78;36.92;;;;;;;;;;5082390;28;20082;-71
2023/12/01 14:48:53;;;;;;;80.57;38.60;;;;;;;;;;5083492;28;20450;-72
2023/12/01 14:51:38;;;;;;;79.90;39.80;;;;;;;;;;5097858;28;20044;-70
2023/12/01 14:54:25;;;;;;;81.95;38.85;;;;;;;;;;5091326;28;20012;-72
2023/12/01 14:57:11;;;;;;;124.38;42.83;;;;;;;;;;5068832;28;20020;-71
2023/12/01 14:59:56;;;;;;;106.55;41.25;;;;;;;;;;5083348;28;20031;-70
2023/12/01 15:02:42;;;;;;;107.05;40.72;;;;;;;;;;5094823;28;20107;-69
2023/12/01 15:05:27;;;;;;;124.85;41.53;;;;;;;;;;5094438;28;20062;-68
2023/12/01 15:08:13;;;;;;;89.97;40.88;;;;;;;;;;5095040;28;20038;-69
2023/12/01 15:10:59;;;;;;;114.90;45.00;;;;;;;;;;5081135;28;20016;-70
2023/12/01 15:13:44;;;;;;;130.90;47.17;;;;;;;;;;5075372;28;20025;-71
2023/12/01 15:16:30;;;;;;;114.22;46.72;;;;;;;;;;5075647;28;20016;-72
2023/12/01 15:19:15;;;;;;;87.40;44.20;;;;;;;;;;5075202;28;20468;-69
2023/12/01 15:22:01;;;;;;;89.63;45.72;;;;;;;;;;5076040;28;20051;-70
2023/12/01 15:24:47;;;;;;;97.05;49.72;;;;;;;;;;5075547;28;20017;-73
2023/12/01 15:27:32;;;;;;;154.73;54.13;;;;;;;;;;5075910;28;20029;-72
2023/12/01 15:30:18;;;;;;;103.15;48.92;;;;;;;;;;5075107;28;20017;-73
2023/12/01 15:33:03;;;;;;;126.97;48.58;;;;;;;;;;5074894;28;20095;-72
2023/12/01 15:35:49;;;;;;;188.35;51.05;;;;;;;;;;5075517;28;20075;-70
2023/12/01 15:38:35;;;;;;;144.40;50.03;;;;;;;;;;5074707;28;20365;-69
2023/12/01 15:41:20;;;;;;;106.57;53.17;;;;;;;;;;5074839;28;20117;-70
2023/12/01 15:44:06;;;;;;;99.93;52.75;;;;;;;;;;5074696;28;20028;-69
2023/12/01 15:46:52;;;;;;;132.10;52.78;;;;;;;;;;5074610;28;20035;-68
2023/12/01 15:49:38;;;;;;;111.35;51.10;;;;;;;;;;5089775;28;20027;-72
2023/12/01 15:52:24;;;;;;;96.15;49.88;;;;;;;;;;5095971;28;20117;-70
2023/12/01 15:55:09;;;;;;;129.93;52.88;;;;;;;;;;5093455;28;20459;-66
2023/12/01 15:57:55;;;;;;;147.52;54.10;;;;;;;;;;5081804;28;20082;-67
2023/12/01 16:00:42;;;;;;;100.13;47.78;;;;;;;;;;5094707;28;20024;-71
2023/12/01 16:03:28;;;;;;;100.03;48.03;;;;;;;;;;5095619;28;20036;-71
2023/12/01 16:06:13;;;;;;;100.03;46.50;;;;;;;;;;5080674;28;20031;-71
2023/12/01 16:08:59;;;;;;;123.68;47.65;;;;;;;;;;5095489;28;20024;-71
2023/12/01 16:11:45;;;;;;;125.10;46.85;;;;;;;;;;5080121;28;20034;-70